createdAt,value
2023-07-08T00:01:38.955Z,51.00
2023-07-08T00:04:05.644Z,50.70
2023-07-08T00:06:32.215Z,51.80
2023-07-08T00:08:58.724Z,51.00
2023-07-08T00:11:25.247Z,51.10
2023-07-08T00:13:51.802Z,51.80
2023-07-08T00:16:18.398Z,50.30
2023-07-08T00:18:45.027Z,50.80
2023-07-08T00:21:11.575Z,50.80
2023-07-08T00:23:38.130Z,50.50
2023-07-08T00:26:04.635Z,50.40
2023-07-08T00:30:58.497Z,50.80
2023-07-08T00:35:52.310Z,50.50
2023-07-08T00:38:18.838Z,50.60
2023-07-08T00:40:45.373Z,50.70
2023-07-08T00:43:11.852Z,50.60
2023-07-08T00:45:44.678Z,51.30
2023-07-08T00:48:20.276Z,50.90
2023-07-08T00:50:46.798Z,51.00
2023-07-08T00:53:13.286Z,50.70
2023-07-08T00:55:39.799Z,50.40
2023-07-08T01:00:33.383Z,50.80
2023-07-08T01:03:00.002Z,50.50
2023-07-08T01:05:26.613Z,50.80
2023-07-08T01:07:53.136Z,51.60
2023-07-08T01:10:19.633Z,50.30
2023-07-08T01:12:46.156Z,50.90
2023-07-08T01:15:12.678Z,50.60
2023-07-08T01:17:39.230Z,50.80
2023-07-08T01:20:05.793Z,50.40
2023-07-08T01:22:32.306Z,50.60
2023-07-08T01:24:58.829Z,50.60
2023-07-08T01:27:25.345Z,50.60
2023-07-08T01:32:19.043Z,50.20
2023-07-08T01:34:45.937Z,50.60
2023-07-08T01:37:12.434Z,50.60
2023-07-08T01:39:38.971Z,51.20
2023-07-08T01:42:05.481Z,51.80
2023-07-08T01:44:31.968Z,50.80
2023-07-08T01:46:58.502Z,50.60
2023-07-08T01:49:24.991Z,50.50
2023-07-08T01:51:51.503Z,51.20
2023-07-08T01:54:18.031Z,51.50
2023-07-08T01:56:44.532Z,50.90
2023-07-08T02:01:38.153Z,50.70
2023-07-08T02:04:04.745Z,50.50
2023-07-08T02:08:58.368Z,50.70
2023-07-08T02:11:24.869Z,50.60
2023-07-08T02:13:51.505Z,50.90
2023-07-08T02:18:45.166Z,51.70
2023-07-08T02:21:11.722Z,50.50
2023-07-08T02:26:05.266Z,50.30
2023-07-08T02:28:31.806Z,51.20
2023-07-08T02:30:58.602Z,51.60
2023-07-08T02:33:25.397Z,50.90
2023-07-08T02:35:51.885Z,51.50
2023-07-08T02:38:18.385Z,51.40
2023-07-08T02:40:44.914Z,50.60
2023-07-08T02:43:11.425Z,50.40
2023-07-08T02:45:38.059Z,50.30
2023-07-08T02:48:04.619Z,50.40
2023-07-08T02:52:58.195Z,50.60
2023-07-08T02:55:24.721Z,50.20
2023-07-08T02:57:51.245Z,50.50
2023-07-08T03:02:44.869Z,50.50
2023-07-08T03:05:11.391Z,50.90
2023-07-08T03:07:37.938Z,50.30
2023-07-08T03:10:04.455Z,50.20
2023-07-08T03:12:30.974Z,50.60
2023-07-08T03:14:57.474Z,50.50
2023-07-08T03:17:24.109Z,50.50
2023-07-08T03:22:17.752Z,50.20
2023-07-08T03:24:44.257Z,50.40
2023-07-08T03:27:10.748Z,50.60
2023-07-08T03:29:37.238Z,50.10
2023-07-08T03:32:03.728Z,50.30
2023-07-08T03:34:30.241Z,51.80
2023-07-08T03:36:56.734Z,50.50
2023-07-08T03:39:23.256Z,50.60
2023-07-08T03:41:49.757Z,50.60
2023-07-08T03:44:16.262Z,50.50
2023-07-08T03:46:42.844Z,50.20
2023-07-08T03:49:09.412Z,50.60
2023-07-08T03:54:02.989Z,50.40
2023-07-08T03:56:29.497Z,50.50
2023-07-08T03:58:55.978Z,50.40
2023-07-08T04:01:22.505Z,50.70
2023-07-08T04:03:49.128Z,50.40
2023-07-08T04:06:15.776Z,47.70
2023-07-08T04:08:42.328Z,45.10
2023-07-08T04:13:35.934Z,45.60
2023-07-08T04:16:02.526Z,45.90
2023-07-08T04:18:29.069Z,45.20
2023-07-08T04:23:24.995Z,46.70
2023-07-08T04:25:51.511Z,47.10
2023-07-08T04:28:18.022Z,47.70
2023-07-08T04:30:44.546Z,46.90
2023-07-08T04:33:11.164Z,47.50
2023-07-08T04:38:04.747Z,46.90
2023-07-08T04:40:31.248Z,48.00
2023-07-08T04:42:57.766Z,47.50
2023-07-08T04:45:24.296Z,46.60
2023-07-08T04:47:50.797Z,47.10
2023-07-08T04:50:17.374Z,48.10
2023-07-08T04:52:43.871Z,47.50
2023-07-08T04:55:10.358Z,47.00
2023-07-08T04:57:36.832Z,47.50
2023-07-08T05:00:03.305Z,46.70
2023-07-08T05:02:29.870Z,47.80
2023-07-08T05:04:56.370Z,47.20
2023-07-08T05:07:22.891Z,47.50
2023-07-08T05:12:16.460Z,48.40
2023-07-08T05:17:10.005Z,49.20
2023-07-08T05:19:36.498Z,48.60
2023-07-08T05:22:03.003Z,48.70
2023-07-08T05:24:29.491Z,48.90
2023-07-08T05:26:55.973Z,48.90
2023-07-08T05:29:22.457Z,49.00
2023-07-08T05:31:48.993Z,48.50
2023-07-08T05:34:15.520Z,49.20
2023-07-08T05:36:42.058Z,48.20
2023-07-08T05:39:08.638Z,49.20
2023-07-08T05:41:35.138Z,49.90
2023-07-08T05:44:01.664Z,48.80
2023-07-08T05:46:28.278Z,49.50
2023-07-08T05:48:54.827Z,49.70
2023-07-08T05:53:48.430Z,49.80
2023-07-08T05:56:14.977Z,49.30
2023-07-08T05:58:41.476Z,50.20
2023-07-08T06:01:08.210Z,49.90
2023-07-08T06:03:34.999Z,49.50
2023-07-08T06:06:01.559Z,50.10
2023-07-08T06:08:28.060Z,49.40
2023-07-08T06:10:54.581Z,48.70
2023-07-08T06:13:21.278Z,47.90
2023-07-08T06:15:47.881Z,48.70
2023-07-08T06:18:14.444Z,48.30
2023-07-08T06:20:40.949Z,48.10
2023-07-08T06:23:07.472Z,48.60
2023-07-08T06:25:33.999Z,48.20
2023-07-08T06:30:27.733Z,48.70
2023-07-08T06:32:54.287Z,47.50
2023-07-08T06:37:47.818Z,48.40
2023-07-08T06:40:14.358Z,47.70
2023-07-08T06:42:40.873Z,48.60
2023-07-08T06:45:07.407Z,47.50
2023-07-08T06:47:33.936Z,48.10
2023-07-08T06:50:00.445Z,47.90
2023-07-08T06:52:26.973Z,47.70
2023-07-08T06:54:53.505Z,48.60
2023-07-08T06:57:20.021Z,47.80
2023-07-08T06:59:46.525Z,47.60
2023-07-08T07:02:13.025Z,47.70
2023-07-08T07:04:39.535Z,47.30
2023-07-08T07:07:06.046Z,47.60
2023-07-08T07:09:33.905Z,47.40
2023-07-08T07:12:00.553Z,47.20
2023-07-08T07:19:25.933Z,48.20
2023-07-08T07:21:52.444Z,47.70
2023-07-08T07:26:46.016Z,48.80
2023-07-08T07:29:12.533Z,48.70
2023-07-08T07:31:40.888Z,48.40
2023-07-08T07:36:34.582Z,48.30
2023-07-08T07:39:01.090Z,48.40
2023-07-08T07:41:27.615Z,48.40
2023-07-08T07:43:54.144Z,48.00
2023-07-08T07:46:20.656Z,48.20
2023-07-08T07:51:14.263Z,47.80
2023-07-08T07:53:40.768Z,47.40
2023-07-08T07:58:34.333Z,48.90
2023-07-08T08:01:01.133Z,48.90
2023-07-08T08:03:27.896Z,48.20
2023-07-08T08:05:54.421Z,48.40
2023-07-08T08:08:20.941Z,49.70
2023-07-08T08:10:47.496Z,48.40
2023-07-08T08:13:14.047Z,48.90
2023-07-08T08:15:40.561Z,49.10
2023-07-08T08:18:07.092Z,49.20
2023-07-08T08:23:00.720Z,48.40
2023-07-08T08:25:27.300Z,47.80
2023-07-08T08:30:20.877Z,48.10
2023-07-08T08:32:47.442Z,47.90
2023-07-08T08:35:13.990Z,48.80
2023-07-08T08:40:07.613Z,48.40
2023-07-08T08:42:34.105Z,47.60
2023-07-08T08:45:00.610Z,48.00
2023-07-08T08:47:27.154Z,47.60
2023-07-08T08:49:53.669Z,48.30
2023-07-08T08:52:20.230Z,47.90
2023-07-08T08:54:46.833Z,47.40
2023-07-08T08:57:13.325Z,47.90
2023-07-08T08:59:39.849Z,47.70
2023-07-08T09:02:06.402Z,49.10
2023-07-08T09:04:32.928Z,47.70
2023-07-08T09:06:59.456Z,47.40
2023-07-08T09:11:53.005Z,47.50
2023-07-08T09:14:19.481Z,46.70
2023-07-08T09:16:46.057Z,48.10
2023-07-08T09:19:12.615Z,48.00
2023-07-08T09:21:39.116Z,46.50
2023-07-08T09:24:05.634Z,48.60
2023-07-08T09:26:32.187Z,46.60
2023-07-08T09:28:58.704Z,46.90
2023-07-08T09:31:25.331Z,46.90
2023-07-08T09:33:51.938Z,46.90
2023-07-08T09:36:18.451Z,46.60
2023-07-08T09:41:12.746Z,46.30
2023-07-08T09:46:06.371Z,47.70
2023-07-08T09:48:32.966Z,47.00
2023-07-08T09:50:59.763Z,46.00
2023-07-08T09:53:26.703Z,46.80
2023-07-08T09:55:53.215Z,47.50
2023-07-08T10:00:46.763Z,47.00
2023-07-08T10:03:13.272Z,47.20
2023-07-08T10:05:39.779Z,46.60
2023-07-08T10:10:33.336Z,47.30
2023-07-08T10:12:59.845Z,46.20
2023-07-08T10:15:26.408Z,47.00
2023-07-08T10:17:53.064Z,46.70
2023-07-08T10:20:19.638Z,46.30
2023-07-08T10:22:46.147Z,45.40
2023-07-08T10:25:12.663Z,46.10
2023-07-08T10:27:39.177Z,46.30
2023-07-08T10:30:07.225Z,45.70
2023-07-08T10:32:34.126Z,45.80
2023-07-08T10:35:00.677Z,46.30
2023-07-08T10:37:27.194Z,46.30
2023-07-08T10:39:53.724Z,45.80
2023-07-08T10:42:20.229Z,45.50
2023-07-08T10:44:46.756Z,46.50
2023-07-08T10:47:13.290Z,45.40
2023-07-08T10:49:39.793Z,45.20
2023-07-08T10:54:33.385Z,45.20
2023-07-08T10:56:59.921Z,46.60
2023-07-08T10:59:26.401Z,45.70
2023-07-08T11:01:53.131Z,46.40
2023-07-08T11:04:19.731Z,46.30
2023-07-08T11:06:46.216Z,45.40
2023-07-08T11:09:12.747Z,46.60
2023-07-08T11:11:39.271Z,46.30
2023-07-08T11:14:05.850Z,45.50
2023-07-08T11:16:35.343Z,46.50
2023-07-08T11:19:03.311Z,45.50
2023-07-08T11:21:29.810Z,46.40
2023-07-08T11:23:56.412Z,46.30
2023-07-08T11:26:22.924Z,46.30
2023-07-08T11:28:49.474Z,47.00
2023-07-08T11:31:16.007Z,46.90
2023-07-08T11:33:42.593Z,47.40
2023-07-08T11:36:09.102Z,46.50
2023-07-08T11:38:35.735Z,47.10
2023-07-08T11:41:02.540Z,47.20
2023-07-08T11:43:29.251Z,47.10
2023-07-08T11:45:55.765Z,46.40
2023-07-08T11:48:22.357Z,47.30
2023-07-08T11:53:15.942Z,47.40
2023-07-08T11:55:42.459Z,47.40
2023-07-08T11:58:10.247Z,46.30
2023-07-08T12:00:36.871Z,46.90
2023-07-08T12:03:03.455Z,47.20
2023-07-08T12:05:30.083Z,46.70
2023-07-08T12:07:56.584Z,46.10
2023-07-08T12:10:23.139Z,47.10
2023-07-08T12:12:49.667Z,47.30
2023-07-08T12:15:16.215Z,47.40
2023-07-08T12:20:09.828Z,46.20
2023-07-08T12:22:36.302Z,46.70
2023-07-08T12:25:02.793Z,46.10
2023-07-08T12:27:29.318Z,45.90
2023-07-08T12:29:55.821Z,47.20
2023-07-08T12:32:22.409Z,46.90
2023-07-08T12:34:51.325Z,46.00
2023-07-08T12:37:17.849Z,46.90
2023-07-08T12:39:44.370Z,47.00
2023-07-08T12:44:37.929Z,46.30
2023-07-08T12:47:04.464Z,46.80
2023-07-08T12:49:31.010Z,46.00
2023-07-08T12:51:57.628Z,46.50
2023-07-08T12:54:24.158Z,47.30
2023-07-08T12:56:50.686Z,46.70
2023-07-08T12:59:17.235Z,47.80
2023-07-08T13:04:10.901Z,47.50
2023-07-08T13:06:37.524Z,47.50
2023-07-08T13:09:04.039Z,48.10
2023-07-08T13:11:30.596Z,48.10
2023-07-08T13:13:57.190Z,48.20
2023-07-08T13:16:23.772Z,47.80
2023-07-08T13:18:50.294Z,48.10
2023-07-08T13:23:45.721Z,47.70
2023-07-08T13:26:12.215Z,47.70
2023-07-08T13:28:38.721Z,47.50
2023-07-08T13:31:05.517Z,48.60
2023-07-08T13:33:32.333Z,48.70
2023-07-08T13:35:58.843Z,48.00
2023-07-08T13:40:52.366Z,48.90
2023-07-08T13:43:21.185Z,48.40
2023-07-08T13:45:48.652Z,48.90
2023-07-08T13:48:15.272Z,48.30
2023-07-08T13:50:41.788Z,49.20
2023-07-08T13:53:08.315Z,49.20
2023-07-08T13:55:34.885Z,48.70
2023-07-08T13:58:01.384Z,48.10
2023-07-08T14:00:27.896Z,49.10
2023-07-08T14:02:54.426Z,49.00
2023-07-08T14:05:21.103Z,48.40
2023-07-08T14:07:47.703Z,48.80
2023-07-08T14:10:14.277Z,49.30
2023-07-08T14:12:40.790Z,48.90
2023-07-08T14:15:07.295Z,49.20
2023-07-08T14:17:33.823Z,48.20
2023-07-08T14:20:00.381Z,49.10
2023-07-08T14:22:26.919Z,49.20
2023-07-08T14:24:53.470Z,49.30
2023-07-08T14:27:20.056Z,48.10
2023-07-08T14:29:46.547Z,48.80
2023-07-08T14:32:13.075Z,48.10
2023-07-08T14:34:39.603Z,49.10
2023-07-08T14:37:06.172Z,49.40
2023-07-08T14:39:32.708Z,47.60
2023-07-08T14:41:59.237Z,49.00
2023-07-08T14:44:25.736Z,49.80
2023-07-08T14:46:52.305Z,48.40
2023-07-08T14:49:18.879Z,48.10
2023-07-08T14:51:45.383Z,48.00
2023-07-08T14:54:11.910Z,49.20
2023-07-08T14:59:05.476Z,48.90
2023-07-08T15:01:32.038Z,48.80
2023-07-08T15:03:58.706Z,47.70
2023-07-08T15:06:25.232Z,49.00
2023-07-08T15:08:51.794Z,48.70
2023-07-08T15:11:18.311Z,49.20
2023-07-08T15:13:44.890Z,49.20
2023-07-08T15:16:11.430Z,49.10
2023-07-08T15:18:38.154Z,48.30
2023-07-08T15:21:04.814Z,48.80
2023-07-08T15:23:31.303Z,49.00
2023-07-08T15:28:24.876Z,47.90
2023-07-08T15:30:51.485Z,49.20
2023-07-08T15:33:18.208Z,47.70
2023-07-08T15:35:44.824Z,49.00
2023-07-08T15:38:11.433Z,48.60
2023-07-08T15:40:37.959Z,48.90
2023-07-08T15:45:31.553Z,48.80
2023-07-08T15:47:58.100Z,48.80
2023-07-08T15:50:24.647Z,48.00
2023-07-08T15:55:18.206Z,49.10
2023-07-08T15:57:44.727Z,48.40
2023-07-08T16:00:11.326Z,48.90
2023-07-08T16:02:38.021Z,48.50
2023-07-08T16:05:04.748Z,48.10
2023-07-08T16:07:31.267Z,49.00
2023-07-08T16:09:57.856Z,49.20
2023-07-08T16:12:24.358Z,49.10
2023-07-08T16:14:50.920Z,49.20
2023-07-08T16:17:17.489Z,49.30
2023-07-08T16:19:44.154Z,48.30
2023-07-08T16:22:10.742Z,49.20
2023-07-08T16:24:37.249Z,49.00
2023-07-08T16:27:03.773Z,49.20
2023-07-08T16:29:30.277Z,49.40
2023-07-08T16:31:56.834Z,49.10
2023-07-08T16:34:23.347Z,49.50
2023-07-08T16:36:49.927Z,49.50
2023-07-08T16:39:16.424Z,49.00
2023-07-08T16:41:42.931Z,49.20
2023-07-08T16:46:36.490Z,48.00
2023-07-08T16:49:03.066Z,48.90
2023-07-08T16:53:56.640Z,48.20
2023-07-08T16:56:23.574Z,48.00
2023-07-08T17:01:17.633Z,47.70
2023-07-08T17:06:11.322Z,47.90
2023-07-08T17:08:37.880Z,48.30
2023-07-08T17:11:04.535Z,48.30
2023-07-08T17:13:31.220Z,48.20
2023-07-08T17:15:57.809Z,48.20
2023-07-08T17:18:24.314Z,48.30
2023-07-08T17:20:50.870Z,47.00
2023-07-08T17:23:17.354Z,48.30
2023-07-08T17:25:43.908Z,48.20
2023-07-08T17:28:10.444Z,48.50
2023-07-08T17:30:36.954Z,48.60
2023-07-08T17:33:03.611Z,47.20
2023-07-08T17:35:30.239Z,48.60
2023-07-08T17:37:56.812Z,48.50
2023-07-08T17:40:23.322Z,47.60
2023-07-08T17:42:49.876Z,47.90
2023-07-08T17:45:16.394Z,47.80
2023-07-08T17:47:42.937Z,48.80
2023-07-08T17:50:09.500Z,48.10
2023-07-08T17:52:36.019Z,48.90
2023-07-08T17:55:02.580Z,48.30
2023-07-08T17:57:29.132Z,48.80
2023-07-08T17:59:55.712Z,48.20
2023-07-08T18:02:22.334Z,48.90
2023-07-08T18:07:15.894Z,49.40
2023-07-08T18:09:42.440Z,49.50
2023-07-08T18:12:08.965Z,49.70
2023-07-08T18:14:35.480Z,49.80
2023-07-08T18:17:02.030Z,49.60
2023-07-08T18:19:28.560Z,49.60
2023-07-08T18:21:55.106Z,49.90
2023-07-08T18:24:21.633Z,50.10
2023-07-08T18:26:48.129Z,50.20
2023-07-08T18:29:14.654Z,49.60
2023-07-08T18:31:41.205Z,49.50
2023-07-08T18:34:07.844Z,49.20
2023-07-08T18:36:34.396Z,50.50
2023-07-08T18:39:00.949Z,50.50
2023-07-08T18:41:27.489Z,50.50
2023-07-08T18:43:54.033Z,50.60
2023-07-08T18:48:47.702Z,50.80
2023-07-08T18:51:14.226Z,50.00
2023-07-08T18:53:40.758Z,51.30
2023-07-08T18:56:07.307Z,51.40
2023-07-08T18:58:33.850Z,51.10
2023-07-08T19:01:00.434Z,50.70
2023-07-08T19:03:27.025Z,51.40
2023-07-08T19:05:53.559Z,50.80
2023-07-08T19:08:20.607Z,51.60
2023-07-08T19:10:47.154Z,51.40
2023-07-08T19:15:40.695Z,51.70
2023-07-08T19:18:07.291Z,51.60
2023-07-08T19:20:33.869Z,50.50
2023-07-08T19:23:00.384Z,51.60
2023-07-08T19:25:26.892Z,51.70
2023-07-08T19:27:53.449Z,50.80
2023-07-08T19:30:19.955Z,51.30
2023-07-08T19:32:46.498Z,50.40
2023-07-08T19:35:13.059Z,50.00
2023-07-08T19:37:39.582Z,51.30
2023-07-08T19:40:06.133Z,51.30
2023-07-08T19:42:32.693Z,51.10
2023-07-08T19:44:59.202Z,51.10
2023-07-08T19:47:25.723Z,51.50
2023-07-08T19:49:52.237Z,51.40
2023-07-08T19:52:18.783Z,51.10
2023-07-08T19:54:45.302Z,50.70
2023-07-08T19:57:11.828Z,51.60
2023-07-08T19:59:38.369Z,51.90
2023-07-08T20:02:04.927Z,50.80
2023-07-08T20:04:31.441Z,51.90
2023-07-08T20:06:57.958Z,52.00
2023-07-08T20:09:24.480Z,51.20
2023-07-08T20:11:51.007Z,52.20
2023-07-08T20:14:17.539Z,52.50
2023-07-08T20:16:44.125Z,51.80
2023-07-08T20:19:10.718Z,52.30
2023-07-08T20:21:37.212Z,51.10
2023-07-08T20:24:03.790Z,51.50
2023-07-08T20:26:30.307Z,52.20
2023-07-08T20:28:57.061Z,52.70
2023-07-08T20:31:23.600Z,52.70
2023-07-08T20:33:50.210Z,51.70
2023-07-08T20:36:16.707Z,52.20
2023-07-08T20:38:43.208Z,52.70
2023-07-08T20:41:09.738Z,51.80
2023-07-08T20:43:36.272Z,52.00
2023-07-08T20:46:02.945Z,52.70
2023-07-08T20:48:29.689Z,52.70
2023-07-08T20:50:56.332Z,51.80
2023-07-08T20:53:22.915Z,52.30
2023-07-08T20:55:49.459Z,51.50
2023-07-08T20:58:16.073Z,52.70
2023-07-08T21:00:42.601Z,53.10
2023-07-08T21:03:09.153Z,51.80
2023-07-08T21:05:35.720Z,52.30
2023-07-08T21:08:02.230Z,53.20
2023-07-08T21:12:55.794Z,53.60
2023-07-08T21:15:22.309Z,53.70
2023-07-08T21:17:48.924Z,53.70
2023-07-08T21:20:15.469Z,53.60
2023-07-08T21:22:41.969Z,53.40
2023-07-08T21:25:08.482Z,52.60
2023-07-08T21:27:34.978Z,53.00
2023-07-08T21:30:01.507Z,52.80
2023-07-08T21:32:29.803Z,52.90
2023-07-08T21:34:56.511Z,52.80
2023-07-08T21:37:23.005Z,52.90
2023-07-08T21:39:49.505Z,53.30
2023-07-08T21:42:16.017Z,53.60
2023-07-08T21:44:42.672Z,52.80
2023-07-08T21:47:09.209Z,53.00
2023-07-08T21:49:35.769Z,53.90
2023-07-08T21:52:02.265Z,53.00
2023-07-08T21:54:28.774Z,52.90
2023-07-08T21:56:55.305Z,52.60
2023-07-08T21:59:21.858Z,53.40
2023-07-08T22:01:48.435Z,53.80
2023-07-08T22:04:15.125Z,53.10
2023-07-08T22:06:41.783Z,53.80
2023-07-08T22:09:08.322Z,53.80
2023-07-08T22:11:34.886Z,53.80
2023-07-08T22:14:01.541Z,53.60
2023-07-08T22:16:28.228Z,53.60
2023-07-08T22:18:54.956Z,52.90
2023-07-08T22:21:21.534Z,53.80
2023-07-08T22:23:48.037Z,52.80
2023-07-08T22:26:14.533Z,53.00
2023-07-08T22:28:41.045Z,52.80
2023-07-08T22:31:07.594Z,53.00
2023-07-08T22:33:34.160Z,53.70
2023-07-08T22:36:00.826Z,52.60
2023-07-08T22:38:27.490Z,53.20
2023-07-08T22:40:54.032Z,53.80
2023-07-08T22:43:20.565Z,53.00
2023-07-08T22:45:47.114Z,53.40
2023-07-08T22:48:13.661Z,52.60
2023-07-08T22:50:40.160Z,53.80
2023-07-08T22:53:06.681Z,52.80
2023-07-08T22:55:33.200Z,53.40
2023-07-08T23:00:26.805Z,53.40
2023-07-08T23:02:53.415Z,53.40
2023-07-08T23:05:20.039Z,53.40
2023-07-08T23:07:46.579Z,52.80
2023-07-08T23:10:13.139Z,52.90
2023-07-08T23:12:39.634Z,53.30
2023-07-08T23:15:06.130Z,52.70
2023-07-08T23:17:32.727Z,53.00
2023-07-08T23:19:59.260Z,53.60
2023-07-08T23:22:25.777Z,53.00
2023-07-08T23:24:52.323Z,52.70
2023-07-08T23:29:45.941Z,52.50
2023-07-08T23:32:12.538Z,53.20
2023-07-08T23:37:06.138Z,53.10
2023-07-08T23:39:32.647Z,53.00
2023-07-08T23:41:59.261Z,52.90
2023-07-08T23:44:25.781Z,53.20
2023-07-08T23:46:52.357Z,52.80
2023-07-08T23:49:19.046Z,53.40
2023-07-08T23:51:45.547Z,52.90
2023-07-08T23:54:12.068Z,52.50
2023-07-08T23:56:38.588Z,52.90
2023-07-08T23:59:05.098Z,53.10
